Latest Weather Observations for Banana Bank

IDQ60801

Issued at 4:35 pm EST Saturday 1 November 2014 (issued every 30 minutes, with the page automatically refreshed every 10 minutes)

About weather observations | Map of weather stations | Latest weather observations for QLD | Other Formats
Station Details ID: 040925 Name: BANANA BANK NORTH BEACON Lat: -27.53 Lon: 153.33 Height: 7.0 m
Data from the previous 72 hours. | See also: Recent months for locations in Queensland
Date/Time
EST
Temp
°C
App
Temp
°C
Dew
Point
Rel
Hum
%
Delta-T
°C
Wind Press
QNH
hPa
Press
MSL
hPa
Rain
since 9 am
mm
Dir
 
Spd
km/h
Gust
km/h
Spd
kts
Gust
kts
01/04:30pm - - - - - NNE 39 48 21 26 - - -
01/04:00pm - - - - - NNE 35 44 19 24 - - -
01/03:30pm - - - - - N 35 43 19 23 - - -
01/03:00pm - - - - - N 32 44 17 24 - - -
01/02:30pm - - - - - N 32 37 17 20 - - -
01/02:00pm - - - - - N 32 39 17 21 - - -
01/01:30pm - - - - - N 32 37 17 20 - - -
01/01:00pm - - - - - N 32 39 17 21 - - -
01/12:30pm - - - - - N 32 39 17 21 - - -
01/12:00pm - - - - - N 30 35 16 19 - - -
01/11:30am - - - - - N 35 41 19 22 - - -
01/11:00am - - - - - N 33 39 18 21 - - -
01/10:30am - - - - - N 32 35 17 19 - - -
01/10:00am - - - - - N 26 32 14 17 - - -
01/09:30am - - - - - N 22 28 12 15 - - -
01/09:00am - - - - - NNW 26 32 14 17 - - -
01/08:30am - - - - - N 26 32 14 17 - - -
01/08:00am - - - - - N 32 39 17 21 - - -
01/07:30am - - - - - N 32 37 17 20 - - -
01/07:00am - - - - - N 30 35 16 19 - - -
01/06:30am - - - - - N 33 37 18 20 - - -
01/06:00am - - - - - N 28 33 15 18 - - -
01/05:30am - - - - - N 28 32 15 17 - - -
01/05:00am - - - - - N 30 35 16 19 - - -
01/04:30am - - - - - N 32 37 17 20 - - -
01/04:00am - - - - - NNW 32 37 17 20 - - -
01/03:30am - - - - - N 32 37 17 20 - - -
01/03:00am - - - - - NNW 33 41 18 22 - - -
01/02:30am - - - - - NNW 35 39 19 21 - - -
01/02:00am - - - - - NNW 32 37 17 20 - - -
01/01:30am - - - - - N 33 41 18 22 - - -
01/01:00am - - - - - N 33 41 18 22 - - -
01/12:30am - - - - - N 32 37 17 20 - - -
01/12:00am - - - - - N 33 39 18 21 - - -
 
Date/Time
EST
Temp
°C
App
Temp
°C
Dew
Point
Rel
Hum
%
Delta-T
°C
Wind Press
QNH
hPa
Press
MSL
hPa
Rain
since 9 am
mm
Dir
 
Spd
km/h
Gust
km/h
Spd
kts
Gust
kts
31/11:30pm - - - - - N 32 39 17 21 - - -
31/11:00pm - - - - - N 35 43 19 23 - - -
31/10:30pm - - - - - N 33 41 18 22 - - -
31/10:00pm - - - - - N 32 37 17 20 - - -
31/09:30pm - - - - - N 30 35 16 19 - - -
31/09:00pm - - - - - N 33 39 18 21 - - -
31/08:30pm - - - - - N 30 37 16 20 - - -
31/08:00pm - - - - - N 30 37 16 20 - - -
31/07:30pm - - - - - N 32 41 17 22 - - -
31/07:00pm - - - - - N 30 33 16 18 - - -
31/06:30pm - - - - - N 32 37 17 20 - - -
31/06:00pm - - - - - N 33 39 18 21 - - -
31/05:30pm - - - - - NNE 28 35 15 19 - - -
31/05:00pm - - - - - NNE 28 37 15 20 - - -
31/04:30pm - - - - - NNE 28 35 15 19 - - -
31/04:00pm - - - - - NNE 28 35 15 19 - - -
31/03:30pm - - - - - NNE 30 39 16 21 - - -
31/03:00pm - - - - - NE 30 39 16 21 - - -
31/02:30pm - - - - - NNE 26 33 14 18 - - -
31/02:00pm - - - - - NNE 24 30 13 16 - - -
31/01:30pm - - - - - NNE 22 28 12 15 - - -
31/01:00pm - - - - - N 24 30 13 16 - - -
31/12:30pm - - - - - NNE 20 24 11 13 - - -
31/12:00pm - - - - - N 19 24 10 13 - - -
31/11:30am - - - - - N 13 15 7 8 - - -
31/11:00am - - - - - N 17 20 9 11 - - -
31/10:30am - - - - - N 17 19 9 10 - - -
31/10:00am - - - - - N 15 17 8 9 - - -
31/09:30am - - - - - N 15 19 8 10 - - -
31/09:00am - - - - - N 15 19 8 10 - - -
31/08:30am - - - - - N 13 15 7 8 - - -
31/08:00am - - - - - N 11 13 6 7 - - -
31/07:30am - - - - - N 17 20 9 11 - - -
31/07:00am - - - - - N 13 17 7 9 - - -
31/06:30am - - - - - N 15 19 8 10 - - -
31/06:00am - - - - - N 11 15 6 8 - - -
31/05:30am - - - - - NNE 13 15 7 8 - - -
31/05:00am - - - - - NNE 15 19 8 10 - - -
31/04:30am - - - - - NNE 15 19 8 10 - - -
31/04:00am - - - - - NNE 9 13 5 7 - - -
31/03:30am - - - - - NNE 9 11 5 6 - - -
31/03:00am - - - - - N 11 15 6 8 - - -
31/02:30am - - - - - N 9 11 5 6 - - -
31/02:00am - - - - - N 11 15 6 8 - - -
31/01:30am - - - - - NNE 13 13 7 7 - - -
31/01:00am - - - - - NNE 11 13 6 7 - - -
31/12:30am - - - - - NNE 11 15 6 8 - - -
31/12:00am - - - - - NNE 9 13 5 7 - - -
 
Date/Time
EST
Temp
°C
App
Temp
°C
Dew
Point
Rel
Hum
%
Delta-T
°C
Wind Press
QNH
hPa
Press
MSL
hPa
Rain
since 9 am
mm
Dir
 
Spd
km/h
Gust
km/h
Spd
kts
Gust
kts
30/11:30pm - - - - - N 11 15 6 8 - - -
30/11:00pm - - - - - N 15 19 8 10 - - -
30/10:30pm - - - - - N 17 20 9 11 - - -
30/10:00pm - - - - - N 19 22 10 12 - - -
30/09:30pm - - - - - N 19 24 10 13 - - -
30/09:00pm - - - - - NNE 17 20 9 11 - - -
30/08:30pm - - - - - NNE 15 19 8 10 - - -
30/08:00pm - - - - - NNE 15 19 8 10 - - -
30/07:30pm - - - - - NE 17 20 9 11 - - -
30/07:00pm - - - - - NE 19 22 10 12 - - -
30/06:30pm - - - - - NE 20 24 11 13 - - -
30/06:00pm - - - - - ENE 20 26 11 14 - - -
30/05:30pm - - - - - ENE 20 22 11 12 - - -
30/05:00pm - - - - - NE 17 20 9 11 - - -
30/04:30pm - - - - - NE 20 24 11 13 - - -
30/04:00pm - - - - - NNE 19 20 10 11 - - -
30/03:30pm - - - - - NE 15 19 8 10 - - -
30/03:00pm - - - - - ENE 9 17 5 9 - - -
30/02:30pm - - - - - ENE 13 17 7 9 - - -
30/02:00pm - - - - - N 13 17 7 9 - - -
30/01:30pm - - - - - W 4 19 2 10 - - -
30/01:00pm - - - - - NW 4 9 2 5 - - -
30/12:30pm - - - - - N 11 13 6 7 - - -
30/12:00pm - - - - - NNW 7 11 4 6 - - -
30/11:30am - - - - - SSE 9 13 5 7 - - -
30/11:00am - - - - - SSE 11 13 6 7 - - -
30/10:30am - - - - - SSE 11 13 6 7 - - -
30/10:00am - - - - - SSE 9 13 5 7 - - -
30/09:30am - - - - - SE 11 13 6 7 - - -
30/09:00am - - - - - SSE 13 17 7 9 - - -
30/08:30am - - - - - SSE 11 17 6 9 - - -
30/08:00am - - - - - S 9 13 5 7 - - -
30/07:30am - - - - - S 9 13 5 7 - - -
30/07:00am - - - - - S 11 13 6 7 - - -
30/06:30am - - - - - S 11 13 6 7 - - -
30/06:00am - - - - - S 11 13 6 7 - - -
30/05:30am - - - - - SSE 15 19 8 10 - - -
30/05:00am - - - - - S 15 17 8 9 - - -
30/04:30am - - - - - SSE 17 20 9 11 - - -
30/04:00am - - - - - S 17 20 9 11 - - -
30/03:30am - - - - - S 17 19 9 10 - - -
30/03:00am - - - - - S 17 19 9 10 - - -
30/02:30am - - - - - S 15 19 8 10 - - -
30/02:00am - - - - - S 15 17 8 9 - - -
30/01:30am - - - - - S 13 15 7 8 - - -
30/01:00am - - - - - S 17 19 9 10 - - -
30/12:30am - - - - - S 15 17 8 9 - - -
30/12:00am - - - - - SSE 17 20 9 11 - - -
 
Date/Time
EST
Temp
°C
App
Temp
°C
Dew
Point
Rel
Hum
%
Delta-T
°C
Wind Press
QNH
hPa
Press
MSL
hPa
Rain
since 9 am
mm
Dir
 
Spd
km/h
Gust
km/h
Spd
kts
Gust
kts
29/11:30pm - - - - - SE 17 20 9 11 - - -
29/11:00pm - - - - - SE 17 20 9 11 - - -
29/10:30pm - - - - - SE 17 20 9 11 - - -
29/10:00pm - - - - - SE 17 20 9 11 - - -
29/09:30pm - - - - - SE 20 24 11 13 - - -
29/09:00pm - - - - - SE 20 24 11 13 - - -
29/08:30pm - - - - - SE 24 28 13 15 - - -
29/08:00pm - - - - - SE 26 30 14 16 - - -
29/07:30pm - - - - - SE 26 30 14 16 - - -
29/07:00pm - - - - - SE 26 33 14 18 - - -
29/06:30pm - - - - - SE 32 39 17 21 - - -
29/06:00pm - - - - - SE 33 39 18 21 - - -
29/05:30pm - - - - - SE 35 44 19 24 - - -
29/05:00pm - - - - - SE 37 48 20 26 - - -

Other Formats:

Comma delimited format used in spreadsheet applications
http://www.bom.gov.au/fwo/IDQ60801/IDQ60801.94591.axf

JavaScript Object Notation format (JSON) in row-major order
http://www.bom.gov.au/fwo/IDQ60801/IDQ60801.94591.json